Time;durP1;ratioP1;P1;durP2;ratioP2;P2;SDS_P1;SDS_P2;PMS_P1;PMS_P2;Temp;Humidity;BMP_temperature;BMP_pressure;BME280_temperature;BME280_humidity;BME280_pressure;Samples;Min_cycle;Max_cycle;Signal;HPM_P1;HPM_P2
2021/12/04 00:02:06;;;;;;;37.80;13.83;;;;;;;14.65;47.51;100032.63;5063307;28;20077;-68
2021/12/04 00:04:35;;;;;;;37.50;14.33;;;;;;;14.74;46.55;100021.75;5049152;28;20025;-68
2021/12/04 00:07:06;;;;;;;36.30;13.90;;;;;;;16.53;42.31;100012.25;5032157;28;20443;-69
2021/12/04 00:09:32;;;;;;;32.37;13.23;;;;;;;15.39;44.60;100016.44;5050559;28;20048;-68
2021/12/04 00:14:24;;;;;;;36.27;14.63;;;;;;;15.52;43.83;100008.00;5062093;28;20029;-68
2021/12/04 00:16:49;;;;;;;38.23;14.27;;;;;;;14.99;45.41;100002.31;5035879;28;20542;-68
2021/12/04 00:19:15;;;;;;;41.40;15.47;;;;;;;15.10;46.17;100001.88;5047646;28;20060;-69
2021/12/04 00:21:41;;;;;;;35.60;14.30;;;;;;;14.65;46.70;99993.16;5059074;28;20389;-69
2021/12/04 00:24:07;;;;;;;42.80;16.37;;;;;;;15.23;45.61;99983.78;5031641;28;20044;-68
2021/12/04 00:26:33;;;;;;;36.43;14.43;;;;;;;15.89;43.79;99988.78;5032445;28;20469;-69
2021/12/04 00:28:58;;;;;;;38.17;13.33;;;;;;;14.64;46.32;99980.94;5039216;28;20035;-68
2021/12/04 00:31:24;;;;;;;40.17;14.37;;;;;;;14.79;47.20;99989.13;5051314;28;20025;-68
2021/12/04 00:33:50;;;;;;;40.50;14.37;;;;;;;14.93;46.06;99981.50;5050704;28;20028;-68
2021/12/04 00:49:50;;;;;;;44.33;15.10;;;;;;;14.88;47.04;99970.34;5059927;28;20094;-68
2021/12/04 00:52:15;;;;;;;40.17;13.93;;;;;;;15.04;45.44;99974.03;5057660;28;20029;-68
2021/12/04 00:54:42;;;;;;;44.23;13.87;;;;;;;14.74;46.44;99977.03;5034678;28;20484;-68
2021/12/04 00:57:08;;;;;;;45.67;15.90;;;;;;;16.18;43.47;99977.84;5043546;28;20443;-68
2021/12/04 00:59:34;;;;;;;39.07;14.97;;;;;;;15.98;43.33;99989.28;5040429;28;20024;-68
2021/12/04 01:01:59;;;;;;;43.63;15.63;;;;;;;16.16;43.21;99977.06;5047185;28;20024;-68
2021/12/04 01:04:25;;;;;;;46.90;15.23;;;;;;;15.39;45.57;99976.94;5061346;28;20484;-68
2021/12/04 01:06:50;;;;;;;44.03;14.70;;;;;;;15.96;44.33;99977.97;5054316;28;20028;-68
2021/12/04 01:09:18;;;;;;;43.80;14.33;;;;;;;15.11;46.50;99966.72;5038584;28;20413;-69
2021/12/04 01:11:45;;;;;;;42.33;14.47;;;;;;;15.07;46.40;99963.38;5036226;28;20033;-68
2021/12/04 01:14:13;;;;;;;42.40;14.77;;;;;;;15.41;45.01;99972.47;5063239;28;20051;-68
2021/12/04 01:16:39;;;;;;;43.37;14.60;;;;;;;14.21;47.01;99961.59;5037848;28;20041;-68
2021/12/04 01:19:04;;;;;;;46.47;14.67;;;;;;;15.32;45.93;99957.06;5068211;28;20028;-69
2021/12/04 01:21:30;;;;;;;47.63;13.73;;;;;;;15.55;44.79;99963.06;5054475;28;20141;-68
2021/12/04 01:23:56;;;;;;;49.03;14.83;;;;;;;15.18;45.36;99962.94;5054668;28;20059;-68
2021/12/04 01:26:22;;;;;;;45.77;15.17;;;;;;;15.69;44.48;99960.69;5071698;28;20495;-68
2021/12/04 01:28:48;;;;;;;52.17;16.07;;;;;;;15.74;44.56;99958.72;5060046;28;20082;-68
2021/12/04 01:31:14;;;;;;;47.33;14.43;;;;;;;15.84;44.57;99934.59;5035020;28;20040;-68
2021/12/04 01:33:39;;;;;;;48.03;14.87;;;;;;;13.93;47.90;99941.63;5042485;28;20064;-68
2021/12/04 01:36:06;;;;;;;51.40;16.90;;;;;;;14.62;48.55;99943.31;5034531;28;20025;-69
2021/12/04 01:38:31;;;;;;;42.90;13.67;;;;;;;15.54;45.54;99940.31;5035132;28;20028;-68
2021/12/04 01:40:57;;;;;;;47.83;14.57;;;;;;;15.01;47.16;99939.94;5034208;28;20040;-68
2021/12/04 01:43:22;;;;;;;41.60;14.30;;;;;;;16.03;43.46;99924.94;5048502;28;20052;-68
2021/12/04 01:45:47;;;;;;;36.93;14.73;;;;;;;16.09;44.12;99932.53;5037387;28;20025;-69
2021/12/04 01:48:13;;;;;;;47.30;16.43;;;;;;;15.74;44.95;99932.38;5036334;28;20039;-69
2021/12/04 01:50:39;;;;;;;43.10;14.40;;;;;;;14.95;45.75;99934.97;5073488;28;20024;-69
2021/12/04 01:53:04;;;;;;;43.17;14.97;;;;;;;14.95;45.89;99932.31;5065313;28;20032;-68
2021/12/04 01:55:33;;;;;;;52.03;15.43;;;;;;;14.66;48.26;99933.53;5064811;28;20082;-68
2021/12/04 01:58:01;;;;;;;45.27;14.40;;;;;;;15.32;46.60;99936.00;5043592;28;20059;-68
2021/12/04 02:00:31;;;;;;;42.93;14.27;;;;;;;14.99;47.48;99931.28;5054153;28;20029;-68
2021/12/04 02:02:57;;;;;;;57.77;15.63;;;;;;;15.34;45.73;99926.25;5047645;28;20047;-68
2021/12/04 02:05:23;;;;;;;50.63;15.70;;;;;;;15.31;45.18;99923.75;5038811;28;20130;-68
2021/12/04 02:07:48;;;;;;;54.00;15.07;;;;;;;16.09;43.47;99921.97;5052558;28;20039;-68
2021/12/04 02:10:13;;;;;;;45.47;13.47;;;;;;;16.36;43.54;99918.97;5053823;28;20074;-69
2021/12/04 02:12:40;;;;;;;47.20;13.93;;;;;;;16.25;43.30;99911.56;5054404;28;20403;-68
2021/12/04 02:15:12;;;;;;;47.03;15.70;;;;;;;15.53;45.44;99922.81;5045739;28;20473;-68
2021/12/04 02:17:37;;;;;;;45.67;13.73;;;;;;;15.12;46.31;99918.44;5045046;28;20031;-67
2021/12/04 02:20:08;;;;;;;44.83;14.47;;;;;;;16.32;43.48;99906.84;5038248;28;20127;-67
2021/12/04 02:22:34;;;;;;;55.20;15.57;;;;;;;16.30;43.57;99905.22;5052187;28;20572;-68
2021/12/04 02:24:59;;;;;;;48.13;14.57;;;;;;;15.99;43.88;99910.19;5053773;28;20143;-68
2021/12/04 02:27:24;;;;;;;49.37;15.30;;;;;;;16.17;43.53;99912.84;5053919;28;20040;-68
2021/12/04 02:29:50;;;;;;;52.83;15.03;;;;;;;14.93;46.00;99918.38;5069685;28;20036;-68
2021/12/04 02:32:18;;;;;;;47.67;13.13;;;;;;;15.12;46.60;99912.31;5062792;28;20412;-68
2021/12/04 02:34:44;;;;;;;42.00;13.33;;;;;;;15.92;44.97;99908.75;5053301;28;20030;-68
2021/12/04 02:37:09;;;;;;;46.90;13.93;;;;;;;15.22;46.37;99913.63;5049259;28;20037;-68
2021/12/04 02:39:37;;;;;;;48.40;13.20;;;;;;;15.24;45.29;99911.78;5054124;28;20025;-68
2021/12/04 02:42:06;;;;;;;51.03;15.13;;;;;;;14.73;47.16;99906.91;5038198;28;20103;-68
2021/12/04 02:44:40;;;;;;;42.37;13.80;;;;;;;15.63;44.99;99899.53;5035044;28;20083;-68
2021/12/04 02:47:07;;;;;;;45.50;13.93;;;;;;;16.36;43.72;99903.16;5039701;28;20059;-68
2021/12/04 02:49:33;;;;;;;48.90;14.77;;;;;;;15.92;44.26;99892.94;5065087;28;20468;-67
2021/12/04 02:52:07;;;;;;;52.87;13.70;;;;;;;16.20;44.21;99891.63;5033283;28;20029;-68
2021/12/04 02:54:34;;;;;;;44.83;14.43;;;;;;;14.57;46.82;99903.19;5050485;28;20035;-68
2021/12/04 02:57:00;;;;;;;44.57;13.60;;;;;;;15.63;46.04;99900.38;5033066;28;20033;-68
2021/12/04 02:59:26;;;;;;;38.57;12.70;;;;;;;16.50;43.09;99901.59;5048391;28;20066;-68
2021/12/04 03:01:54;;;;;;;53.90;13.73;;;;;;;15.51;44.35;99903.56;5034056;28;20025;-68
2021/12/04 03:04:22;;;;;;;53.67;14.93;;;;;;;15.03;46.17;99901.28;5051256;28;20036;-68
2021/12/04 03:06:47;;;;;;;45.63;12.90;;;;;;;16.75;41.98;99899.44;5033453;28;20036;-68
2021/12/04 03:09:14;;;;;;;44.23;13.33;;;;;;;16.68;42.71;99895.41;5049895;28;20032;-68
2021/12/04 03:11:40;;;;;;;45.10;13.83;;;;;;;17.03;41.95;99891.94;5068860;28;20067;-68
2021/12/04 03:14:06;;;;;;;43.80;13.90;;;;;;;16.74;42.27;99881.88;5036982;28;20097;-67
2021/12/04 03:16:33;;;;;;;41.87;13.33;;;;;;;17.16;41.49;99887.72;5056111;28;20024;-68
2021/12/04 03:18:59;;;;;;;49.00;14.17;;;;;;;17.69;40.12;99885.78;5032114;28;20400;-68
2021/12/04 03:21:25;;;;;;;47.00;12.63;;;;;;;18.20;39.36;99879.50;5051219;28;20032;-67
2021/12/04 03:24:12;;;;;;;54.27;14.20;;;;;;;17.90;39.67;99877.59;5051251;28;20037;-68
2021/12/04 03:26:38;;;;;;;50.30;12.90;;;;;;;17.75;40.28;99874.88;5059886;28;20103;-68
2021/12/04 03:29:08;;;;;;;51.23;13.33;;;;;;;18.06;39.48;99859.13;5065151;28;20031;-68
2021/12/04 03:42:37;;;;;;;50.93;13.23;;;;;;;17.25;41.52;99859.97;5068473;28;20063;-68
2021/12/04 03:45:05;;;;;;;45.37;12.77;;;;;;;17.79;39.73;99844.69;5065918;28;20029;-68
2021/12/04 03:47:31;;;;;;;50.17;13.47;;;;;;;17.53;40.29;99842.63;5038022;28;20038;-68
2021/12/04 03:49:56;;;;;;;49.50;14.57;;;;;;;17.05;41.22;99847.81;5049879;28;20033;-68
2021/12/04 03:52:21;;;;;;;47.20;12.73;;;;;;;16.72;42.20;99851.22;5045146;28;20144;-68
2021/12/04 03:54:47;;;;;;;45.33;12.97;;;;;;;16.82;41.95;99846.38;5044261;28;20048;-67
2021/12/04 03:57:12;;;;;;;39.93;12.77;;;;;;;17.23;41.51;99846.84;5032471;28;20075;-68
2021/12/04 03:59:41;;;;;;;51.47;14.33;;;;;;;17.71;40.59;99839.00;5050130;28;20028;-68
2021/12/04 04:02:10;;;;;;;48.80;14.70;;;;;;;17.33;40.91;99841.94;5048636;28;20024;-68
2021/12/04 04:04:35;;;;;;;40.03;12.40;;;;;;;17.32;40.99;99837.56;5032991;28;20031;-68
2021/12/04 04:07:01;;;;;;;48.73;13.47;;;;;;;17.05;41.95;99829.34;5032209;28;20028;-68
2021/12/04 04:09:27;;;;;;;48.57;14.63;;;;;;;17.36;41.00;99823.25;5051655;28;20085;-68
2021/12/04 04:11:53;;;;;;;51.53;13.00;;;;;;;17.19;41.76;99834.75;5069922;28;20476;-68
2021/12/04 04:14:18;;;;;;;45.00;14.27;;;;;;;17.87;40.31;99831.03;5050256;28;20024;-68
2021/12/04 04:16:44;;;;;;;47.37;13.77;;;;;;;16.69;42.73;99822.38;5034686;28;20156;-68
2021/12/04 04:19:10;;;;;;;47.53;13.97;;;;;;;17.75;40.73;99818.50;5045541;28;20036;-68
2021/12/04 04:21:41;;;;;;;51.47;15.37;;;;;;;17.57;41.27;99825.66;5059565;28;20063;-68
2021/12/04 04:24:13;;;;;;;46.10;13.40;;;;;;;17.65;40.94;99815.53;5032581;28;20393;-68
2021/12/04 04:26:39;;;;;;;49.40;13.67;;;;;;;17.86;40.25;99823.19;5062235;28;20112;-68
2021/12/04 04:29:06;;;;;;;53.60;14.33;;;;;;;17.25;41.63;99825.66;5040787;28;20025;-68
2021/12/04 04:31:34;;;;;;;56.87;14.37;;;;;;;17.52;40.84;99814.53;5033091;28;20419;-68
2021/12/04 04:34:09;;;;;;;51.37;13.17;;;;;;;16.97;41.57;99813.91;5054288;28;20054;-69
2021/12/04 04:39:40;;;;;;;48.70;13.43;;;;;;;17.41;41.08;99817.75;5053398;28;20112;-68
2021/12/04 04:58:58;;;;;;;49.43;14.47;;;;;;;17.38;41.11;99787.06;5069944;28;20070;-68
2021/12/04 05:14:30;;;;;;;45.17;14.20;;;;;;;17.89;40.53;99786.03;5069523;28;20127;-68
2021/12/04 05:17:08;;;;;;;61.53;15.60;;;;;;;17.75;41.01;99778.88;5058516;28;20115;-69
2021/12/04 05:19:44;;;;;;;49.73;13.80;;;;;;;17.96;39.83;99782.97;5031243;28;20728;-68
2021/12/04 05:22:12;;;;;;;54.23;14.03;;;;;;;17.65;40.70;99778.53;5045619;28;20024;-67
2021/12/04 05:24:38;;;;;;;51.10;13.93;;;;;;;17.75;40.51;99771.81;5069692;28;20037;-68
2021/12/04 05:27:04;;;;;;;53.07;13.23;;;;;;;17.00;41.99;99763.59;5050796;28;20051;-68
2021/12/04 05:29:30;;;;;;;46.33;14.30;;;;;;;18.01;40.25;99761.56;5051245;28;20535;-68
2021/12/04 05:31:55;;;;;;;49.30;13.20;;;;;;;17.98;40.05;99759.09;5065360;28;20032;-68
2021/12/04 05:34:21;;;;;;;53.37;14.97;;;;;;;16.79;41.72;99769.06;5032146;28;20488;-68
2021/12/04 05:36:46;;;;;;;59.27;14.50;;;;;;;17.35;41.58;99771.41;5038569;28;20029;-68
2021/12/04 05:39:12;;;;;;;56.57;13.87;;;;;;;16.50;43.39;99781.13;5037267;28;20029;-68
2021/12/04 05:41:38;;;;;;;44.60;13.90;;;;;;;17.25;42.04;99780.75;5031653;28;20374;-68
2021/12/04 05:44:06;;;;;;;50.77;13.33;;;;;;;16.77;42.61;99775.34;5030630;28;20025;-68
2021/12/04 05:46:44;;;;;;;45.17;13.17;;;;;;;17.56;40.87;99773.78;5034816;28;20477;-69
2021/12/04 05:49:18;;;;;;;54.53;13.57;;;;;;;17.81;40.78;99770.59;5049288;28;20040;-68
2021/12/04 05:56:57;;;;;;;43.40;12.53;;;;;;;15.46;45.77;99763.38;5052683;28;20449;-68
2021/12/04 05:59:22;;;;;;;45.43;14.30;;;;;;;15.75;45.40;99762.81;5035056;28;20117;-68
2021/12/04 06:01:48;;;;;;;45.60;14.53;;;;;;;15.63;44.73;99766.03;5033676;28;20128;-68
2021/12/04 06:04:14;;;;;;;49.10;15.10;;;;;;;16.62;43.24;99763.78;5041599;28;20043;-68
2021/12/04 06:06:39;;;;;;;41.00;11.80;;;;;;;17.09;41.88;99747.28;5072375;28;20438;-68
2021/12/04 06:09:06;;;;;;;49.10;12.73;;;;;;;16.93;41.90;99755.16;5053577;28;20147;-69
2021/12/04 06:11:33;;;;;;;49.27;13.60;;;;;;;16.32;43.83;99758.31;5060284;28;20033;-68
2021/12/04 06:13:58;;;;;;;36.27;12.20;;;;;;;16.45;43.52;99759.41;5044286;28;20032;-68
2021/12/04 06:16:23;;;;;;;50.07;13.27;;;;;;;16.45;43.21;99760.25;5042006;28;20128;-68
2021/12/04 06:18:52;;;;;;;46.07;12.93;;;;;;;16.83;42.69;99753.91;5050034;28;20132;-68
2021/12/04 06:24:04;;;;;;;41.63;13.90;;;;;;;17.01;42.77;99745.97;5051888;28;20091;-68
2021/12/04 06:26:30;;;;;;;50.37;13.10;;;;;;;16.82;42.61;99746.94;5048731;28;20033;-68
2021/12/04 06:28:56;;;;;;;56.97;14.17;;;;;;;16.13;44.30;99754.00;5033722;28;20034;-68
2021/12/04 06:31:21;;;;;;;51.50;14.03;;;;;;;16.55;42.49;99747.44;5052712;28;20510;-68
2021/12/04 06:33:47;;;;;;;40.37;12.27;;;;;;;16.02;44.72;99748.38;5033971;28;20099;-68
2021/12/04 06:36:12;;;;;;;46.27;11.43;;;;;;;16.22;43.98;99748.25;5033735;28;20112;-68
2021/12/04 06:38:38;;;;;;;38.90;10.67;;;;;;;15.97;43.29;99759.16;5038399;28;20024;-68
2021/12/04 06:41:05;;;;;;;32.90;10.67;;;;;;;15.82;44.06;99754.66;5033385;28;20485;-68
2021/12/04 06:43:31;;;;;;;31.40;8.80;;;;;;;14.85;48.10;99767.88;5033433;28;20020;-68
2021/12/04 06:45:59;;;;;;;27.40;9.97;;;;;;;15.47;46.29;99759.78;5040945;28;20085;-68
2021/12/04 06:48:33;;;;;;;26.07;7.53;;;;;;;14.56;47.07;99762.09;5043725;28;20432;-68
2021/12/04 06:51:04;;;;;;;23.63;7.43;;;;;;;15.47;44.76;99741.38;5047102;28;20366;-68
2021/12/04 06:56:22;;;;;;;24.70;7.30;;;;;;;16.45;43.04;99744.41;5038606;28;20151;-68
2021/12/04 06:58:48;;;;;;;28.53;8.47;;;;;;;15.85;44.89;99749.22;5034416;28;20066;-68
2021/12/04 07:01:13;;;;;;;28.53;8.23;;;;;;;16.97;41.54;99747.94;5034939;28;21154;-68
2021/12/04 07:03:39;;;;;;;34.47;8.57;;;;;;;17.42;40.79;99745.47;5065207;28;20385;-68
2021/12/04 07:06:05;;;;;;;28.03;8.83;;;;;;;17.52;40.32;99740.56;5047272;28;20032;-68
2021/12/04 07:08:30;;;;;;;28.13;9.07;;;;;;;15.56;43.62;99748.81;5061259;28;20028;-68
2021/12/04 07:10:56;;;;;;;31.10;10.10;;;;;;;16.43;42.65;99750.72;5052535;28;20036;-68
2021/12/04 07:13:21;;;;;;;24.67;8.63;;;;;;;17.03;41.72;99750.22;5037971;28;20029;-68
2021/12/04 07:15:59;;;;;;;29.17;8.47;;;;;;;16.59;42.06;99756.06;5051164;28;20035;-68
2021/12/04 07:18:24;;;;;;;28.23;9.37;;;;;;;16.04;43.17;99755.28;5069332;28;20419;-68
2021/12/04 07:20:49;;;;;;;23.67;7.73;;;;;;;16.10;43.04;99749.72;5047972;28;20045;-68
2021/12/04 07:23:15;;;;;;;31.17;8.63;;;;;;;17.29;40.40;99740.03;5060125;28;20039;-68
2021/12/04 07:25:40;;;;;;;34.10;9.07;;;;;;;16.83;41.91;99732.81;5052357;28;20043;-68
2021/12/04 07:28:06;;;;;;;32.00;9.10;;;;;;;15.75;43.45;99741.75;5070941;28;20059;-68
2021/12/04 07:30:31;;;;;;;32.33;9.63;;;;;;;16.02;43.92;99730.81;5053180;28;20062;-69
2021/12/04 07:32:57;;;;;;;35.27;10.17;;;;;;;15.39;45.19;99736.47;5045285;28;20111;-68
2021/12/04 07:35:22;;;;;;;22.10;8.90;;;;;;;14.91;46.57;99730.78;5033297;28;20032;-68
2021/12/04 07:37:48;;;;;;;34.97;8.63;;;;;;;16.04;43.71;99720.19;5032684;28;20450;-68
2021/12/04 07:40:13;;;;;;;24.33;7.87;;;;;;;15.92;44.36;99716.38;5032336;28;20028;-68
2021/12/04 07:42:39;;;;;;;29.40;8.60;;;;;;;15.84;44.19;99721.16;5035117;28;20042;-68
2021/12/04 07:45:07;;;;;;;32.07;9.97;;;;;;;16.34;42.08;99715.13;5052219;28;20031;-68
2021/12/04 07:47:32;;;;;;;33.07;8.50;;;;;;;15.12;44.67;99707.03;5047862;28;20431;-68
2021/12/04 07:49:57;;;;;;;30.70;8.83;;;;;;;15.27;44.94;99708.94;5032556;28;20107;-68
2021/12/04 07:52:23;;;;;;;35.67;11.13;;;;;;;15.99;43.88;99704.63;5050027;28;20067;-68
2021/12/04 07:54:50;;;;;;;28.47;9.67;;;;;;;15.46;43.98;99694.91;5032322;28;20060;-68
2021/12/04 07:57:16;;;;;;;36.23;9.37;;;;;;;16.23;42.36;99686.69;5032700;28;20020;-68
2021/12/04 07:59:42;;;;;;;30.17;9.13;;;;;;;16.14;42.93;99687.13;5032083;28;20476;-68
2021/12/04 08:02:07;;;;;;;27.37;8.87;;;;;;;15.60;43.86;99681.91;5052317;28;20642;-69
2021/12/04 08:04:32;;;;;;;30.93;10.23;;;;;;;15.34;44.12;99691.91;5051566;28;20174;-68
2021/12/04 08:06:58;;;;;;;27.00;10.03;;;;;;;16.59;42.32;99679.56;5051464;28;20031;-68
2021/12/04 08:09:23;;;;;;;29.70;9.20;;;;;;;14.98;45.41;99674.31;5070194;28;20468;-68
2021/12/04 08:11:50;;;;;;;26.30;8.47;;;;;;;14.92;46.38;99680.72;5043091;28;20499;-68
2021/12/04 08:14:17;;;;;;;41.20;8.73;;;;;;;14.76;46.41;99679.72;5045457;28;20039;-68
2021/12/04 08:16:42;;;;;;;33.30;10.67;;;;;;;14.93;45.82;99681.56;5051070;28;20032;-68
2021/12/04 08:19:07;;;;;;;33.77;10.00;;;;;;;15.70;43.85;99675.28;5051492;28;20407;-68
2021/12/04 08:21:34;;;;;;;33.60;9.13;;;;;;;15.41;44.28;99685.47;5051709;28;20032;-68
2021/12/04 08:24:00;;;;;;;43.17;11.13;;;;;;;16.05;43.14;99683.19;5058987;28;20135;-68
2021/12/04 08:26:27;;;;;;;32.20;9.13;;;;;;;15.41;43.86;99680.19;5051055;28;20135;-68
2021/12/04 08:28:52;;;;;;;36.33;10.73;;;;;;;14.38;46.75;99685.75;5050693;28;20028;-68
2021/12/04 08:31:18;;;;;;;37.80;10.53;;;;;;;14.66;46.26;99689.81;5069924;28;20025;-68
2021/12/04 08:33:43;;;;;;;42.67;12.80;;;;;;;14.67;46.24;99691.53;5046675;28;20384;-68
2021/12/04 08:36:09;;;;;;;39.17;11.37;;;;;;;14.40;47.20;99701.47;5042475;28;20569;-68
2021/12/04 08:38:36;;;;;;;43.17;11.80;;;;;;;15.52;45.25;99682.28;5055073;28;20032;-68
2021/12/04 08:41:03;;;;;;;49.50;13.17;;;;;;;15.23;45.52;99695.06;5031668;28;20065;-68
2021/12/04 08:43:28;;;;;;;55.67;14.47;;;;;;;15.48;45.03;99688.63;5040947;28;20036;-68
2021/12/04 08:45:55;;;;;;;51.03;12.63;;;;;;;15.55;44.64;99687.41;5051451;28;20047;-69
2021/12/04 08:48:21;;;;;;;60.87;16.30;;;;;;;14.79;47.04;99679.56;5025496;28;20115;-68
2021/12/04 08:50:46;;;;;;;66.30;18.73;;;;;;;14.58;46.88;99686.63;5059225;28;20170;-70
2021/12/04 08:53:12;;;;;;;69.07;18.97;;;;;;;14.40;47.73;99677.81;5067511;28;20535;-69
2021/12/04 08:55:39;;;;;;;83.43;19.87;;;;;;;16.00;44.43;99674.66;5051098;28;20385;-69
2021/12/04 08:58:06;;;;;;;64.30;16.57;;;;;;;16.04;44.16;99675.38;5044574;28;20488;-69
2021/12/04 09:00:51;;;;;;;76.13;18.40;;;;;;;16.06;43.63;99665.59;5053103;28;20039;-70
2021/12/04 09:03:33;;;;;;;60.07;12.87;;;;;;;17.08;42.38;99660.25;5041841;28;20032;-69
2021/12/04 09:06:01;;;;;;;76.50;15.55;;;;;;;16.31;43.98;99651.13;5047220;28;20654;-69
2021/12/04 09:08:28;;;;;;;70.93;15.20;;;;;;;16.61;42.71;99646.03;5075218;28;20040;-69
2021/12/04 09:10:57;;;;;;;57.77;14.73;;;;;;;15.73;44.57;99659.31;5030529;28;20418;-70
2021/12/04 09:13:24;;;;;;;71.57;15.70;;;;;;;16.01;43.98;99665.84;5041433;28;20067;-70
2021/12/04 09:15:50;;;;;;;73.83;16.57;;;;;;;16.56;43.37;99662.09;5051040;28;20077;-70
2021/12/04 09:18:16;;;;;;;63.63;14.83;;;;;;;16.13;43.36;99658.22;5044523;28;20070;-70
2021/12/04 09:20:41;;;;;;;64.73;13.37;;;;;;;14.55;48.08;99663.13;5036244;28;20045;-70
2021/12/04 09:23:13;;;;;;;59.00;14.00;;;;;;;16.00;44.78;99658.84;5040110;28;20152;-69
2021/12/04 09:25:44;;;;;;;68.10;15.52;;;;;;;16.59;43.69;99655.81;5058052;28;20063;-70
2021/12/04 09:28:19;;;;;;;65.77;16.40;;;;;;;15.40;45.03;99654.78;5072095;28;20040;-70
2021/12/04 10:01:13;;;;;;;50.30;14.13;;;;;;;17.25;41.43;99617.03;5057710;28;20090;-69
2021/12/04 10:23:16;;;;;;;48.67;13.47;;;;;;;16.54;43.19;99573.44;5048769;28;20363;-69
2021/12/04 10:33:48;;;;;;;48.30;14.67;;;;;;;17.50;41.03;99579.47;5052239;28;20110;-69
2021/12/04 10:36:42;;;;;;;57.07;14.40;;;;;;;16.42;43.43;99580.25;5041195;28;20411;-70
2021/12/04 10:39:10;;;;;;;53.57;15.87;;;;;;;15.35;45.75;99590.97;5071942;28;20046;-70
2021/12/04 10:41:40;;;;;;;53.97;14.30;;;;;;;16.07;44.47;99586.47;5049276;28;20469;-69
2021/12/04 10:44:23;;;;;;;62.23;16.23;;;;;;;15.50;46.12;99596.41;5056767;28;20032;-69
2021/12/04 10:47:05;;;;;;;69.13;15.53;;;;;;;15.68;46.29;99587.56;5073011;28;20521;-69
2021/12/04 10:55:22;;;;;;;62.93;14.83;;;;;;;15.16;47.75;99600.69;5051855;28;20036;-69
2021/12/04 11:03:00;;;;;;;58.37;16.27;;;;;;;16.19;44.54;99569.13;5066332;28;20064;-70
2021/12/04 11:06:04;;;;;;;72.40;18.33;;;;;;;15.49;46.59;99573.63;5051006;28;20029;-70
2021/12/04 11:28:14;;;;;;;76.80;18.60;;;;;;;16.65;43.88;99534.16;5064038;28;20480;-69
2021/12/04 11:41:36;;;;;;;74.07;17.43;;;;;;;17.02;43.07;99505.69;5070155;28;20044;-70
2021/12/04 11:44:10;;;;;;;105.53;18.73;;;;;;;16.95;43.09;99509.59;5074296;28;20038;-69
2021/12/04 11:49:10;;;;;;;76.10;18.50;;;;;;;16.24;45.49;99508.28;5050186;28;20496;-69
2021/12/04 11:51:52;;;;;;;80.90;18.27;;;;;;;16.76;43.08;99502.72;5032168;28;20055;-69
2021/12/04 11:54:17;;;;;;;91.70;22.57;;;;;;;16.95;43.48;99499.06;5050253;28;20020;-69
2021/12/04 11:56:43;;;;;;;79.57;17.33;;;;;;;18.31;40.29;99485.63;5057037;28;20040;-69
2021/12/04 11:59:08;;;;;;;73.83;17.63;;;;;;;17.16;42.31;99504.03;5049266;28;20028;-69
2021/12/04 12:01:35;;;;;;;69.30;17.47;;;;;;;17.54;41.96;99482.41;5051942;28;20034;-69
2021/12/04 12:04:31;;;;;;;68.83;16.63;;;;;;;16.40;44.79;99488.03;5069022;28;20043;-69
2021/12/04 12:06:56;;;;;;;65.43;16.37;;;;;;;15.70;46.01;99485.63;5035482;28;20050;-69
2021/12/04 12:09:28;;;;;;;55.03;15.73;;;;;;;16.03;46.40;99489.19;5033602;28;20032;-69
2021/12/04 12:11:58;;;;;;;64.10;18.63;;;;;;;15.26;48.29;99491.38;5049705;28;20166;-69
2021/12/04 12:14:43;;;;;;;63.73;16.47;;;;;;;14.87;49.13;99508.25;5051493;28;20012;-69
2021/12/04 12:17:09;;;;;;;51.17;17.17;;;;;;;15.40;47.13;99491.53;5051365;28;20033;-69
2021/12/04 12:19:47;;;;;;;70.63;16.23;;;;;;;15.18;47.20;99498.81;5036537;28;20496;-69
2021/12/04 12:22:42;;;;;;;60.83;16.23;;;;;;;15.66;47.76;99489.34;5031152;28;20033;-69
2021/12/04 12:37:22;;;;;;;62.23;16.40;;;;;;;16.33;45.06;99477.91;5029534;28;20037;-69
2021/12/04 12:40:09;;;;;;;54.03;14.03;;;;;;;16.74;44.25;99475.56;5029885;28;20033;-69
2021/12/04 12:42:40;;;;;;;54.40;15.03;;;;;;;17.12;43.81;99474.34;5039015;28;20029;-69
2021/12/04 12:45:23;;;;;;;46.53;12.43;;;;;;;16.57;43.96;99465.97;5055894;28;20082;-69
2021/12/04 12:48:00;;;;;;;53.65;12.48;;;;;;;15.73;45.43;99469.66;5046105;28;20507;-69
2021/12/04 12:50:28;;;;;;;43.10;11.17;;;;;;;16.27;45.91;99465.91;5032048;28;20040;-69
2021/12/04 12:53:27;;;;;;;44.03;11.83;;;;;;;16.79;44.47;99460.31;5035590;28;20465;-70
2021/12/04 12:56:08;;;;;;;34.80;9.83;;;;;;;16.61;43.96;99453.47;5032138;28;20073;-69
2021/12/04 12:59:21;;;;;;;40.97;10.03;;;;;;;16.97;43.94;99449.69;5050220;28;20060;-70
2021/12/04 13:13:51;;;;;;;24.00;7.63;;;;;;;17.98;41.60;99433.91;5033201;28;19920;-69
2021/12/04 13:16:31;;;;;;;24.73;7.10;;;;;;;17.29;42.93;99449.56;5046697;28;20029;-69
2021/12/04 13:19:05;;;;;;;18.47;7.07;;;;;;;17.34;42.29;99442.22;5043625;28;20457;-69
2021/12/04 13:21:33;;;;;;;20.17;7.17;;;;;;;17.45;42.67;99438.94;5063654;28;20484;-69
2021/12/04 13:23:59;;;;;;;17.17;6.13;;;;;;;16.30;44.31;99455.19;5050158;28;20028;-70
2021/12/04 13:26:28;;;;;;;13.17;5.93;;;;;;;14.69;49.58;99458.22;5061510;28;20032;-69
2021/12/04 13:28:54;;;;;;;13.73;5.13;;;;;;;15.04;49.29;99455.63;5053344;28;20024;-69
2021/12/04 13:31:20;;;;;;;12.20;5.13;;;;;;;15.87;47.54;99462.81;5035024;28;20041;-69
2021/12/04 13:33:49;;;;;;;9.63;3.00;;;;;;;15.14;48.70;99468.31;5046559;28;20040;-69
2021/12/04 13:36:27;;;;;;;7.73;3.27;;;;;;;15.58;47.48;99466.03;5051060;28;20493;-70
2021/12/04 13:38:56;;;;;;;8.53;3.07;;;;;;;15.55;47.59;99457.44;5034696;28;20027;-70
2021/12/04 13:41:21;;;;;;;13.07;4.40;;;;;;;15.32;47.75;99458.63;5035270;28;20029;-69
2021/12/04 13:43:55;;;;;;;14.60;3.80;;;;;;;15.64;45.81;99458.75;5047077;28;20051;-70
2021/12/04 13:46:21;;;;;;;10.57;4.17;;;;;;;15.90;44.89;99467.94;5054916;28;20064;-69
2021/12/04 13:48:47;;;;;;;15.70;4.50;;;;;;;15.73;45.14;99461.75;5073236;28;20067;-70
2021/12/04 13:51:13;;;;;;;10.57;3.43;;;;;;;14.95;47.44;99464.00;5054821;28;20020;-70
2021/12/04 13:53:41;;;;;;;10.17;3.17;;;;;;;16.25;45.24;99467.78;5055456;28;20048;-69
2021/12/04 13:56:10;;;;;;;12.60;3.73;;;;;;;16.66;44.33;99476.94;5050346;28;20393;-70
2021/12/04 13:58:54;;;;;;;8.53;3.17;;;;;;;15.89;45.69;99477.59;5052563;28;20042;-69
2021/12/04 14:01:21;;;;;;;8.90;3.23;;;;;;;15.10;47.32;99472.91;5035423;28;20041;-70
2021/12/04 14:03:47;;;;;;;10.87;2.23;;;;;;;15.52;46.84;99478.66;5035137;28;20033;-69
2021/12/04 14:06:16;;;;;;;6.83;1.60;;;;;;;15.51;46.55;99482.22;5044548;28;20021;-70
2021/12/04 14:08:42;;;;;;;5.20;2.53;;;;;;;16.69;44.06;99480.28;5051498;28;20024;-69
2021/12/04 14:11:08;;;;;;;6.63;1.70;;;;;;;16.50;43.81;99487.50;5055169;28;20036;-69
2021/12/04 14:13:37;;;;;;;8.87;2.50;;;;;;;16.30;44.02;99486.84;5050355;28;20024;-69
2021/12/04 14:16:03;;;;;;;6.80;2.40;;;;;;;15.94;44.86;99482.63;5071996;28;20038;-69
2021/12/04 14:18:29;;;;;;;7.17;1.10;;;;;;;16.35;43.15;99484.78;5047643;28;20396;-69
2021/12/04 14:21:00;;;;;;;3.47;1.50;;;;;;;16.22;43.54;99489.03;5030390;28;20081;-69
2021/12/04 14:23:28;;;;;;;2.53;1.20;;;;;;;14.90;46.90;99503.66;5032326;28;20033;-69
2021/12/04 14:25:54;;;;;;;2.20;0.90;;;;;;;15.34;46.11;99499.75;5032304;28;20060;-69
2021/12/04 14:28:24;;;;;;;3.40;1.30;;;;;;;16.13;44.26;99500.06;5031201;28;20035;-69
2021/12/04 14:30:50;;;;;;;5.57;1.27;;;;;;;16.06;44.58;99510.97;5043908;28;20447;-69
2021/12/04 14:33:20;;;;;;;8.30;1.10;;;;;;;15.80;46.06;99508.84;5048829;28;20041;-69
2021/12/04 14:35:49;;;;;;;3.03;1.00;;;;;;;15.95;45.10;99515.97;5050584;28;20370;-70
2021/12/04 14:38:19;;;;;;;4.53;1.03;;;;;;;15.81;45.47;99526.38;5045706;28;20025;-69
2021/12/04 14:40:52;;;;;;;2.50;1.50;;;;;;;16.91;43.59;99523.91;5038974;28;20052;-69
2021/12/04 14:43:23;;;;;;;3.40;1.60;;;;;;;17.43;41.77;99515.63;5050958;28;20021;-69